Time;durP1;ratioP1;P1;durP2;ratioP2;P2;SDS_P1;SDS_P2;PMS_P1;PMS_P2;Temp;Humidity;BMP_temperature;BMP_pressure;BME280_temperature;BME280_humidity;BME280_pressure;Samples;Min_cycle;Max_cycle;Signal;HPM_P1;HPM_P2
2020/12/25 00:01:06;;;;;;;1.88;0.80;;;;;;;-1.41;81.49;100496.47;5104895;28;20028;-72
2020/12/25 00:03:31;;;;;;;1.55;1.08;;;;;;;-1.44;81.30;100484.47;5104353;28;20016;-72
2020/12/25 00:05:57;;;;;;;2.47;0.80;;;;;;;-1.43;81.39;100490.44;5104513;28;20044;-73
2020/12/25 00:08:22;;;;;;;1.48;0.70;;;;;;;-1.38;81.20;100486.41;5104683;28;20020;-72
2020/12/25 00:10:52;;;;;;;1.20;1.05;;;;;;;-1.41;81.19;100494.81;5104801;28;20052;-73
2020/12/25 00:13:17;;;;;;;1.20;0.70;;;;;;;-1.38;81.20;100492.38;5104636;28;20077;-74
2020/12/25 00:15:45;;;;;;;1.67;0.73;;;;;;;-1.39;81.13;100492.31;5104506;28;20027;-74
2020/12/25 00:18:10;;;;;;;1.50;0.70;;;;;;;-1.39;81.10;100487.22;5104141;28;20035;-72
2020/12/25 00:20:36;;;;;;;1.48;1.00;;;;;;;-1.38;81.02;100484.75;5104582;28;20035;-73
2020/12/25 00:23:01;;;;;;;1.20;0.63;;;;;;;-1.41;80.84;100492.25;5103028;28;20019;-72
2020/12/25 00:25:26;;;;;;;1.50;0.73;;;;;;;-1.38;80.80;100496.59;5104495;28;20016;-73
2020/12/25 00:27:52;;;;;;;2.10;0.70;;;;;;;-1.41;80.87;100491.38;5104161;28;20020;-74
2020/12/25 00:30:17;;;;;;;1.58;0.90;;;;;;;-1.43;80.36;100503.16;5104315;28;20024;-72
2020/12/25 00:32:42;;;;;;;0.63;0.50;;;;;;;-1.54;80.31;100493.41;5102702;28;20024;-73
2020/12/25 00:35:08;;;;;;;1.23;0.90;;;;;;;-1.53;80.26;100497.69;5104210;28;20105;-72
2020/12/25 00:37:33;;;;;;;0.93;0.68;;;;;;;-1.52;80.72;100509.59;5103954;28;20024;-71
2020/12/25 00:39:58;;;;;;;1.67;0.80;;;;;;;-1.54;80.81;100511.22;5104146;28;20059;-72
2020/12/25 00:42:24;;;;;;;1.75;0.70;;;;;;;-1.53;80.83;100510.41;5104234;28;20031;-73
2020/12/25 00:44:49;;;;;;;4.22;1.00;;;;;;;-1.52;80.99;100499.41;5104167;28;20016;-73
2020/12/25 00:47:14;;;;;;;1.65;0.77;;;;;;;-1.53;81.09;100502.78;5102785;28;20027;-73
2020/12/25 00:49:40;;;;;;;0.85;0.60;;;;;;;-1.56;80.95;100502.66;5104039;28;20135;-73
2020/12/25 00:52:05;;;;;;;0.47;0.47;;;;;;;-1.54;81.09;100508.69;5102403;28;20024;-73
2020/12/25 00:54:30;;;;;;;0.80;0.70;;;;;;;-1.59;81.29;100502.50;5103949;28;20047;-73
2020/12/25 00:56:55;;;;;;;1.77;0.70;;;;;;;-1.60;80.99;100505.88;5103370;28;20059;-73
2020/12/25 00:59:21;;;;;;;0.70;0.70;;;;;;;-1.58;80.72;100519.53;5103404;28;20043;-73
2020/12/25 01:01:50;;;;;;;1.67;0.85;;;;;;;-1.61;81.11;100524.47;5103050;28;20035;-75
2020/12/25 01:04:15;;;;;;;1.42;0.50;;;;;;;-1.63;80.81;100526.97;5103474;28;20028;-75
2020/12/25 01:06:42;;;;;;;0.75;0.57;;;;;;;-1.61;80.43;100534.66;5103153;28;20055;-74
2020/12/25 01:09:07;;;;;;;1.10;0.80;;;;;;;-1.63;80.72;100533.75;5103653;28;20024;-74
2020/12/25 01:11:33;;;;;;;1.92;0.70;;;;;;;-1.64;80.22;100537.97;5107162;28;20043;-74
2020/12/25 01:13:58;;;;;;;1.08;0.80;;;;;;;-1.72;79.85;100529.13;5107655;28;20067;-75
2020/12/25 01:16:23;;;;;;;1.60;0.80;;;;;;;-1.70;80.39;100544.47;5106144;28;20042;-75
2020/12/25 01:18:49;;;;;;;2.08;0.80;;;;;;;-1.78;80.20;100537.38;5106033;28;20027;-76
2020/12/25 01:21:16;;;;;;;2.13;1.05;;;;;;;-1.74;80.73;100548.53;5107591;28;20361;-75
2020/12/25 01:23:42;;;;;;;2.33;0.82;;;;;;;-1.76;80.93;100543.38;5107398;28;20024;-71
2020/12/25 01:26:08;;;;;;;0.60;0.60;;;;;;;-1.78;80.66;100557.72;5107347;28;20059;-71
2020/12/25 01:28:34;;;;;;;1.80;0.80;;;;;;;-1.79;80.82;100566.16;5106139;28;20084;-71
2020/12/25 01:31:02;;;;;;;1.08;0.90;;;;;;;-1.83;80.49;100559.19;5107544;28;20124;-71
2020/12/25 01:33:37;;;;;;;1.05;0.80;;;;;;;-1.81;81.06;100567.78;5107049;28;20250;-71
2020/12/25 01:36:04;;;;;;;1.00;0.70;;;;;;;-1.85;81.17;100573.50;5105917;28;20040;-72
2020/12/25 01:38:30;;;;;;;0.80;0.70;;;;;;;-1.88;80.62;100578.47;5107239;28;20040;-71
2020/12/25 01:40:55;;;;;;;1.77;0.75;;;;;;;-1.90;81.10;100572.44;5107021;28;20083;-71
2020/12/25 01:43:21;;;;;;;0.70;0.70;;;;;;;-1.89;81.51;100579.28;5107153;28;20027;-72
2020/12/25 01:45:46;;;;;;;1.27;0.80;;;;;;;-1.90;80.76;100573.31;5107252;28;20020;-71
2020/12/25 01:48:12;;;;;;;1.25;0.63;;;;;;;-1.89;81.44;100579.28;5106754;28;20046;-72
2020/12/25 01:50:38;;;;;;;2.63;1.00;;;;;;;-1.92;81.11;100584.22;5105409;28;20044;-71
2020/12/25 01:53:05;;;;;;;0.80;0.60;;;;;;;-1.91;81.62;100580.88;5106761;28;20035;-71
2020/12/25 01:55:32;;;;;;;2.88;0.80;;;;;;;-1.91;82.14;100576.66;5106861;28;20023;-71
2020/12/25 01:58:00;;;;;;;1.00;0.70;;;;;;;-1.91;82.04;100583.41;5106537;28;20091;-72
2020/12/25 02:00:27;;;;;;;2.28;0.60;;;;;;;-1.97;81.98;100585.69;5106620;28;20361;-71
2020/12/25 02:02:52;;;;;;;0.82;0.60;;;;;;;-2.07;81.93;100575.09;5106381;28;20032;-72
2020/12/25 02:05:18;;;;;;;0.57;0.57;;;;;;;-2.09;81.79;100588.56;5106395;28;20020;-71
2020/12/25 02:07:44;;;;;;;1.15;0.70;;;;;;;-2.04;82.16;100589.63;5106539;28;20124;-72
2020/12/25 02:10:11;;;;;;;1.38;0.70;;;;;;;-2.08;82.18;100585.19;5106527;28;20042;-72
2020/12/25 02:12:38;;;;;;;1.15;0.60;;;;;;;-2.07;82.33;100587.81;5106271;28;20020;-71
2020/12/25 02:15:07;;;;;;;1.50;0.70;;;;;;;-2.16;82.27;100579.75;5106241;28;20016;-72
2020/12/25 02:17:33;;;;;;;4.60;1.00;;;;;;;-2.16;82.41;100589.94;5106059;28;20024;-72
2020/12/25 02:20:00;;;;;;;1.08;0.63;;;;;;;-2.14;82.24;100588.34;5106253;28;20126;-71
2020/12/25 02:22:26;;;;;;;1.65;0.60;;;;;;;-2.14;82.14;100589.19;5104811;28;20028;-72
2020/12/25 02:24:51;;;;;;;0.93;0.70;;;;;;;-2.15;82.15;100582.38;5106137;28;20027;-71
2020/12/25 02:27:16;;;;;;;2.38;0.70;;;;;;;-2.13;81.98;100587.53;5106021;28;20020;-72
2020/12/25 02:29:42;;;;;;;0.88;0.70;;;;;;;-2.15;81.33;100592.53;5105895;28;20539;-71
2020/12/25 02:32:07;;;;;;;1.13;0.90;;;;;;;-2.15;80.98;100591.66;5105665;28;20054;-71
2020/12/25 02:34:32;;;;;;;3.92;0.73;;;;;;;-2.11;81.76;100598.66;5105934;28;20070;-72
2020/12/25 02:36:58;;;;;;;1.20;0.70;;;;;;;-2.09;80.96;100602.13;5105955;28;20510;-71
2020/12/25 02:39:23;;;;;;;0.60;0.60;;;;;;;-2.06;81.60;100601.41;5106054;28;20035;-71
2020/12/25 02:41:48;;;;;;;1.65;0.50;;;;;;;-2.10;81.50;100610.56;5105735;28;20028;-71
2020/12/25 02:44:14;;;;;;;1.95;0.65;;;;;;;-2.10;80.76;100605.47;5105779;28;20020;-72
2020/12/25 02:46:39;;;;;;;1.50;0.70;;;;;;;-2.08;81.25;100603.88;5105749;28;20410;-72
2020/12/25 02:49:04;;;;;;;1.25;0.60;;;;;;;-2.10;81.06;100600.41;5105504;28;20028;-72
2020/12/25 02:51:30;;;;;;;3.00;0.70;;;;;;;-2.05;81.59;100606.56;5105652;28;20016;-72
2020/12/25 02:53:55;;;;;;;0.73;0.70;;;;;;;-2.08;80.70;100608.97;5105465;28;20016;-72
2020/12/25 02:56:20;;;;;;;0.88;0.60;;;;;;;-2.04;80.76;100609.97;5105685;28;20596;-72
2020/12/25 02:58:46;;;;;;;0.95;0.77;;;;;;;-2.06;81.29;100612.44;5105378;28;20019;-72
2020/12/25 03:01:13;;;;;;;0.70;0.55;;;;;;;-2.04;81.85;100608.31;5103761;28;20028;-72
2020/12/25 03:03:39;;;;;;;0.40;0.40;;;;;;;-2.07;81.94;100597.09;5103535;28;20387;-72
2020/12/25 03:06:05;;;;;;;0.60;0.60;;;;;;;-2.06;81.75;100598.88;5105207;28;20052;-72
2020/12/25 03:08:32;;;;;;;0.82;0.60;;;;;;;-2.06;81.80;100611.59;5104890;28;20039;-73
2020/12/25 03:10:57;;;;;;;1.15;0.68;;;;;;;-2.09;81.40;100621.63;5105236;28;20072;-72
2020/12/25 03:13:23;;;;;;;0.63;0.40;;;;;;;-2.15;81.56;100618.00;5105076;28;20051;-71
2020/12/25 03:15:48;;;;;;;1.10;0.68;;;;;;;-2.14;81.52;100629.03;5104998;28;20028;-73
2020/12/25 03:18:14;;;;;;;0.68;0.60;;;;;;;-2.18;81.61;100622.94;5104782;28;20416;-72
2020/12/25 03:20:39;;;;;;;1.85;0.50;;;;;;;-2.18;81.27;100634.78;5104867;28;20031;-72
2020/12/25 03:23:05;;;;;;;1.90;0.50;;;;;;;-2.18;81.28;100638.19;5105043;28;20020;-72
2020/12/25 03:25:30;;;;;;;1.30;0.47;;;;;;;-2.18;81.13;100650.91;5104914;28;20020;-71
2020/12/25 03:27:55;;;;;;;1.23;0.60;;;;;;;-2.18;81.38;100642.41;5104714;28;20061;-71
2020/12/25 03:30:21;;;;;;;0.57;0.55;;;;;;;-2.16;81.36;100640.81;5105163;28;20157;-72
2020/12/25 03:32:46;;;;;;;1.38;0.70;;;;;;;-2.17;81.43;100646.72;5104124;28;20047;-72
2020/12/25 03:35:11;;;;;;;1.15;0.80;;;;;;;-2.19;80.90;100645.75;5104913;28;20028;-72
2020/12/25 03:37:37;;;;;;;1.10;0.93;;;;;;;-2.19;81.65;100630.50;5104506;28;20024;-72
2020/12/25 03:40:04;;;;;;;0.88;0.70;;;;;;;-2.20;81.93;100637.25;5104596;28;20468;-72
2020/12/25 03:42:29;;;;;;;1.40;0.80;;;;;;;-2.24;82.23;100628.59;5104423;28;20043;-72
2020/12/25 03:44:55;;;;;;;0.63;0.52;;;;;;;-2.22;82.06;100633.75;5104592;28;20039;-72
2020/12/25 03:47:26;;;;;;;1.13;0.63;;;;;;;-2.25;81.53;100642.13;5104313;28;20027;-72
2020/12/25 03:49:52;;;;;;;;;;;;;;;-2.24;81.35;100648.94;5105147;28;20024;-70
2020/12/25 03:52:18;;;;;;;3.22;0.98;;;;;;;-2.24;82.24;100641.31;5104621;28;19930;-71
2020/12/25 03:54:43;;;;;;;1.10;0.75;;;;;;;-2.33;81.62;100638.31;5104080;28;20039;-70
2020/12/25 03:57:09;;;;;;;0.75;0.68;;;;;;;-2.26;81.60;100644.59;5104086;28;20138;-70
2020/12/25 03:59:34;;;;;;;0.82;0.63;;;;;;;-2.26;81.55;100642.03;5104234;28;20019;-71
2020/12/25 04:02:00;;;;;;;1.45;0.60;;;;;;;-2.25;81.88;100652.28;5104241;28;20067;-70
2020/12/25 04:04:25;;;;;;;0.73;0.65;;;;;;;-2.26;81.66;100642.03;5104017;28;20016;-71
2020/12/25 04:06:50;;;;;;;0.70;0.57;;;;;;;-2.22;81.71;100648.16;5103846;28;20100;-70
2020/12/25 04:09:16;;;;;;;0.55;0.50;;;;;;;-2.23;81.71;100649.81;5104099;28;20027;-72
2020/12/25 04:11:41;;;;;;;2.55;0.80;;;;;;;-2.26;81.38;100645.47;5103928;28;20030;-71
2020/12/25 04:14:07;;;;;;;0.70;0.50;;;;;;;-2.20;81.79;100646.53;5102403;28;20012;-71
2020/12/25 04:16:32;;;;;;;0.70;0.70;;;;;;;-2.18;81.42;100650.03;5103979;28;20439;-71
2020/12/25 04:18:58;;;;;;;0.52;0.52;;;;;;;-2.26;81.24;100645.47;5103807;28;20030;-71
2020/12/25 04:21:24;;;;;;;1.23;0.60;;;;;;;-2.15;81.59;100658.69;5104114;28;20028;-71
2020/12/25 04:23:50;;;;;;;0.70;0.70;;;;;;;-2.15;81.52;100661.22;5102298;28;20090;-70
2020/12/25 04:26:16;;;;;;;0.50;0.50;;;;;;;-2.16;81.19;100661.16;5103873;28;20055;-71
2020/12/25 04:28:41;;;;;;;1.25;0.70;;;;;;;-2.20;80.19;100659.25;5103620;28;20044;-71
2020/12/25 04:31:06;;;;;;;2.05;1.02;;;;;;;-2.14;80.63;100654.47;5103628;28;20353;-71
2020/12/25 04:33:32;;;;;;;0.85;0.55;;;;;;;-2.13;80.93;100646.94;5103573;28;20266;-70
2020/12/25 04:35:57;;;;;;;2.13;0.75;;;;;;;-2.09;80.94;100653.00;5103684;28;20020;-70
2020/12/25 04:38:22;;;;;;;2.58;0.77;;;;;;;-2.08;80.75;100648.81;5103392;28;20096;-70
2020/12/25 04:40:48;;;;;;;0.55;0.55;;;;;;;-2.05;80.52;100648.94;5103567;28;20032;-70
2020/12/25 04:43:14;;;;;;;0.73;0.60;;;;;;;-2.05;80.32;100646.41;5103363;28;20040;-70
2020/12/25 04:45:40;;;;;;;1.08;0.68;;;;;;;-2.08;80.25;100642.06;5102665;28;20074;-70
2020/12/25 04:48:06;;;;;;;0.65;0.60;;;;;;;-2.05;80.80;100647.28;5103386;28;20019;-70
2020/12/25 04:50:32;;;;;;;1.10;0.60;;;;;;;-2.03;80.84;100649.91;5103510;28;20020;-70
2020/12/25 04:52:59;;;;;;;0.88;0.60;;;;;;;-2.04;81.19;100645.59;5103464;28;20058;-71
2020/12/25 04:55:24;;;;;;;0.80;0.70;;;;;;;-2.06;80.68;100642.13;5103237;28;20035;-71
2020/12/25 04:57:50;;;;;;;1.17;0.70;;;;;;;-2.06;80.57;100645.53;5103165;28;20051;-71
2020/12/25 05:00:20;;;;;;;1.05;0.68;;;;;;;-2.07;80.80;100643.78;5103252;28;20028;-71
2020/12/25 05:02:47;;;;;;;0.93;0.65;;;;;;;-2.12;80.55;100635.06;5103052;28;20027;-71
2020/12/25 05:05:14;;;;;;;1.15;0.68;;;;;;;-2.06;80.87;100637.88;5103106;28;20504;-70
2020/12/25 05:07:40;;;;;;;0.80;0.60;;;;;;;-2.03;80.99;100632.94;5103061;28;20099;-71
2020/12/25 05:10:07;;;;;;;0.50;0.50;;;;;;;-1.99;81.15;100636.50;5103291;28;20024;-70
2020/12/25 05:12:33;;;;;;;1.85;0.60;;;;;;;-1.97;81.18;100641.66;5101803;28;20365;-70
2020/12/25 05:15:03;;;;;;;5.13;1.15;;;;;;;-1.95;80.53;100650.25;5103195;28;20046;-72
2020/12/25 05:17:30;;;;;;;3.38;0.75;;;;;;;-1.95;80.27;100647.72;5102922;28;20032;-72
2020/12/25 05:19:56;;;;;;;1.10;0.80;;;;;;;-1.95;80.62;100651.09;5103124;28;20020;-72
2020/12/25 05:22:22;;;;;;;0.82;0.70;;;;;;;-1.93;80.95;100649.50;5103069;28;20024;-71
2020/12/25 05:24:48;;;;;;;0.88;0.70;;;;;;;-1.94;80.96;100642.69;5103289;28;20016;-72
2020/12/25 05:27:13;;;;;;;1.05;0.70;;;;;;;-1.94;80.76;100657.97;5102969;28;20017;-71
2020/12/25 05:29:40;;;;;;;0.88;0.70;;;;;;;-1.92;80.90;100666.53;5101692;28;20024;-71
2020/12/25 05:32:07;;;;;;;1.15;0.60;;;;;;;-1.94;80.77;100662.16;5102875;28;20137;-70
2020/12/25 05:34:34;;;;;;;0.55;0.55;;;;;;;-1.91;80.93;100669.94;5101617;28;20032;-72
2020/12/25 05:37:01;;;;;;;1.63;0.75;;;;;;;-1.94;80.46;100667.25;5101651;28;20031;-70
2020/12/25 05:39:31;;;;;;;1.27;0.70;;;;;;;-1.92;80.61;100660.56;5101717;28;20582;-70
2020/12/25 05:41:59;;;;;;;1.02;0.70;;;;;;;-1.83;80.47;100677.94;5103019;28;20040;-72
2020/12/25 05:44:27;;;;;;;1.17;0.70;;;;;;;-1.86;80.35;100665.94;5101485;28;20044;-72
2020/12/25 05:46:52;;;;;;;1.15;0.70;;;;;;;-1.88;80.93;100667.53;5102948;28;20031;-71
2020/12/25 05:49:18;;;;;;;1.05;0.50;;;;;;;-1.91;80.40;100669.94;5102778;28;20050;-70
2020/12/25 05:51:50;;;;;;;0.77;0.60;;;;;;;-1.86;80.50;100678.66;5102832;28;20031;-70
2020/12/25 05:54:20;;;;;;;1.35;0.80;;;;;;;-1.87;80.65;100674.41;5102699;28;20529;-71
2020/12/25 05:56:51;;;;;;;1.02;0.70;;;;;;;-1.90;80.88;100677.66;5104828;28;20028;-71
2020/12/25 05:59:22;;;;;;;0.73;0.60;;;;;;;-1.92;81.06;100693.66;5106743;28;20028;-71
2020/12/25 06:01:48;;;;;;;1.10;1.00;;;;;;;-1.94;81.12;100707.97;5106314;28;20027;-71
2020/12/25 06:04:14;;;;;;;1.10;0.80;;;;;;;-2.09;80.60;100698.81;5106105;28;20016;-71
2020/12/25 06:06:41;;;;;;;0.93;0.60;;;;;;;-2.06;80.75;100706.59;5106098;28;20078;-71
2020/12/25 06:09:14;;;;;;;0.93;0.55;;;;;;;-2.07;81.01;100707.41;5106160;28;20073;-71
2020/12/25 06:11:45;;;;;;;0.63;0.50;;;;;;;-2.15;79.92;100713.78;5106218;28;20538;-70
2020/12/25 06:14:10;;;;;;;0.80;0.70;;;;;;;-2.14;80.14;100720.63;5106339;28;20028;-70
2020/12/25 06:16:39;;;;;;;0.95;0.70;;;;;;;-2.21;80.33;100698.22;5106087;28;20307;-71
2020/12/25 06:19:10;;;;;;;1.17;0.60;;;;;;;-2.21;80.17;100705.84;5104557;28;20028;-70
2020/12/25 06:21:55;;;;;;;1.15;0.80;;;;;;;-2.17;80.59;100710.31;5104593;28;20020;-70
2020/12/25 06:24:25;;;;;;;1.50;0.60;;;;;;;-2.16;80.62;100725.66;5106011;28;20120;-71
2020/12/25 06:26:54;;;;;;;0.60;0.60;;;;;;;-2.17;80.49;100723.03;5106062;28;20038;-71
2020/12/25 06:29:20;;;;;;;0.80;0.60;;;;;;;-2.18;79.84;100719.59;5106056;28;20020;-70
2020/12/25 06:31:48;;;;;;;1.05;0.80;;;;;;;-2.15;80.38;100719.75;5105789;28;20024;-70
2020/12/25 06:34:15;;;;;;;1.25;0.60;;;;;;;-2.12;80.39;100721.56;5105811;28;20031;-71
2020/12/25 06:36:47;;;;;;;1.05;0.80;;;;;;;-2.12;80.59;100724.09;5105864;28;20097;-71
2020/12/25 06:39:15;;;;;;;0.90;0.80;;;;;;;-2.44;80.54;100675.94;5105719;28;20020;-72
2020/12/25 06:41:41;;;;;;;0.60;0.60;;;;;;;-2.09;81.20;100729.34;5105721;28;20036;-70
2020/12/25 06:44:13;;;;;;;0.55;0.52;;;;;;;-2.11;80.90;100738.59;5105705;28;20132;-70
2020/12/25 06:46:46;;;;;;;1.23;0.80;;;;;;;-2.09;81.38;100739.50;5106272;28;20035;-71
2020/12/25 06:49:14;;;;;;;2.22;0.70;;;;;;;-2.10;81.61;100745.41;5105787;28;20027;-71
2020/12/25 06:51:41;;;;;;;3.20;0.60;;;;;;;-2.11;81.60;100741.13;5105775;28;20066;-71
2020/12/25 06:54:16;;;;;;;0.80;0.60;;;;;;;-2.15;81.07;100739.22;5105694;28;20146;-70
2020/12/25 06:56:41;;;;;;;1.15;1.05;;;;;;;-2.20;80.71;100731.38;5105586;28;20024;-72
2020/12/25 06:59:14;;;;;;;1.65;0.50;;;;;;;-2.13;80.75;100737.63;5105291;28;20039;-71
2020/12/25 07:01:45;;;;;;;0.57;0.40;;;;;;;-2.09;80.83;100736.97;5105513;28;20038;-71
2020/12/25 07:04:36;;;;;;;2.30;0.80;;;;;;;-2.08;80.61;100741.28;5105362;28;20026;-71
2020/12/25 07:07:07;;;;;;;0.80;0.75;;;;;;;-2.03;80.72;100744.91;5101585;28;20310;-70
2020/12/25 07:09:41;;;;;;;2.65;0.80;;;;;;;-2.03;80.61;100732.16;5104933;28;20024;-72
2020/12/25 07:12:20;;;;;;;3.80;0.70;;;;;;;-2.03;80.77;100729.63;5105537;28;20055;-72
2020/12/25 07:14:46;;;;;;;0.45;0.45;;;;;;;-1.98;80.65;100729.84;5105167;28;20046;-73
2020/12/25 07:17:12;;;;;;;0.98;0.60;;;;;;;-1.93;80.72;100730.94;5105111;28;20415;-70
2020/12/25 07:19:39;;;;;;;0.50;0.50;;;;;;;-1.94;80.61;100723.25;5105150;28;20020;-71
2020/12/25 07:22:05;;;;;;;0.68;0.60;;;;;;;-1.96;80.12;100717.19;5105213;28;20016;-71
2020/12/25 07:24:31;;;;;;;0.57;0.52;;;;;;;-1.87;80.11;100720.22;5105180;28;20030;-72
2020/12/25 07:26:56;;;;;;;0.55;0.55;;;;;;;-1.83;79.88;100716.13;5105102;28;20020;-70
2020/12/25 07:29:22;;;;;;;0.50;0.50;;;;;;;-1.82;79.96;100728.06;5105067;28;20030;-72
2020/12/25 07:31:50;;;;;;;0.68;0.60;;;;;;;-1.84;80.11;100735.63;5104917;28;20206;-73
2020/12/25 07:34:23;;;;;;;1.30;0.70;;;;;;;-1.86;79.82;100747.41;5104550;28;20028;-71
2020/12/25 07:36:50;;;;;;;1.35;0.68;;;;;;;-1.88;79.83;100757.50;5105076;28;20075;-71
2020/12/25 07:39:16;;;;;;;0.55;0.50;;;;;;;-1.92;79.81;100762.38;5104743;28;20430;-71
2020/12/25 07:41:42;;;;;;;1.30;0.90;;;;;;;-1.91;80.26;100774.28;5104829;28;20032;-73
2020/12/25 07:44:07;;;;;;;2.78;1.00;;;;;;;-1.92;80.44;100772.56;5104856;28;20054;-71
2020/12/25 07:46:34;;;;;;;2.72;0.80;;;;;;;-1.91;80.84;100769.19;5104643;28;20023;-72
2020/12/25 07:49:00;;;;;;;1.20;0.60;;;;;;;-1.95;81.18;100772.41;5104609;28;20035;-72
2020/12/25 07:51:26;;;;;;;1.45;1.00;;;;;;;-1.92;81.37;100773.44;5104780;28;20051;-71
2020/12/25 07:53:54;;;;;;;1.73;0.80;;;;;;;-1.96;81.18;100784.25;5104730;28;20488;-72
2020/12/25 07:56:22;;;;;;;1.88;0.90;;;;;;;-2.03;81.37;100772.88;5104741;28;20168;-71
2020/12/25 07:58:51;;;;;;;0.70;0.70;;;;;;;-2.01;81.20;100778.06;5104626;28;20035;-71
2020/12/25 08:01:21;;;;;;;1.95;0.70;;;;;;;-1.99;80.69;100791.72;5104628;28;20019;-71
2020/12/25 08:03:47;;;;;;;0.82;0.60;;;;;;;-1.98;81.06;100790.06;5104313;28;20115;-70
2020/12/25 08:06:17;;;;;;;1.30;0.60;;;;;;;-2.01;80.70;100780.59;5104409;28;20054;-71
2020/12/25 08:09:07;;;;;;;0.82;0.63;;;;;;;-1.94;80.51;100785.19;5104353;28;20019;-71
2020/12/25 08:11:34;;;;;;;1.48;0.70;;;;;;;-1.85;81.36;100784.75;5104317;28;20072;-71
2020/12/25 08:14:07;;;;;;;1.20;0.77;;;;;;;-1.76;81.18;100775.03;5104289;28;20209;-72
2020/12/25 08:16:36;;;;;;;0.60;0.60;;;;;;;-1.60;81.14;100764.72;5102980;28;20631;-71
2020/12/25 08:19:05;;;;;;;1.05;0.80;;;;;;;-1.47;80.94;100761.06;5104069;28;20145;-71
2020/12/25 08:21:32;;;;;;;1.42;1.05;;;;;;;-1.27;80.67;100774.72;5104176;28;20055;-71
2020/12/25 08:23:58;;;;;;;2.15;0.65;;;;;;;-1.25;80.63;100773.13;5104033;28;20083;-71
2020/12/25 08:26:33;;;;;;;1.92;0.80;;;;;;;-1.34;79.57;100773.56;5104358;28;20136;-72
2020/12/25 08:28:59;;;;;;;2.28;0.73;;;;;;;-1.31;80.18;100768.59;5104031;28;20012;-72
2020/12/25 08:31:24;;;;;;;1.17;0.73;;;;;;;-1.37;80.47;100763.22;5104164;28;20030;-71
2020/12/25 08:33:56;;;;;;;0.88;0.65;;;;;;;-1.30;80.39;100778.00;5103678;28;20564;-72
2020/12/25 08:36:25;;;;;;;1.95;0.90;;;;;;;-1.38;80.11;100776.78;5103958;28;20534;-71
2020/12/25 08:38:51;;;;;;;2.33;1.13;;;;;;;-1.31;80.32;100780.47;5103591;28;20036;-73
2020/12/25 08:41:17;;;;;;;1.88;0.95;;;;;;;-1.27;80.17;100790.00;5103763;28;20073;-71
2020/12/25 08:43:43;;;;;;;2.72;0.85;;;;;;;-1.25;80.19;100789.25;5102350;28;20108;-72
2020/12/25 08:46:09;;;;;;;1.55;0.77;;;;;;;-1.28;80.73;100778.06;5103693;28;20044;-71
2020/12/25 08:48:47;;;;;;;1.10;0.80;;;;;;;-1.16;80.98;100775.19;5103555;28;20107;-71
2020/12/25 08:51:13;;;;;;;1.63;0.85;;;;;;;-1.08;80.65;100778.09;5102527;28;20054;-69
2020/12/25 08:53:48;;;;;;;1.13;0.70;;;;;;;-1.14;80.42;100773.59;5103681;28;20083;-75
2020/12/25 08:56:21;;;;;;;1.10;0.70;;;;;;;-1.21;80.22;100782.63;5103626;28;20020;-77
2020/12/25 08:59:16;;;;;;;1.35;0.70;;;;;;;-1.20;80.62;100791.16;5103415;28;20079;-74
2020/12/25 09:01:42;;;;;;;1.13;0.80;;;;;;;-1.08;81.17;100788.28;5101557;28;20071;-75
2020/12/25 09:04:20;;;;;;;1.90;0.80;;;;;;;-0.41;81.67;100765.69;5101928;28;20023;-73
2020/12/25 09:06:50;;;;;;;2.72;0.95;;;;;;;0.58;80.51;100778.13;5101984;28;20058;-73
2020/12/25 09:09:15;;;;;;;1.15;0.73;;;;;;;1.38;78.96;100783.56;5103441;28;20107;-73
2020/12/25 09:11:41;;;;;;;3.08;0.80;;;;;;;2.02;77.56;100789.16;5103029;28;20166;-73
2020/12/25 09:14:06;;;;;;;1.98;0.60;;;;;;;2.54;76.06;100794.19;5103568;28;20043;-72
2020/12/25 09:16:32;;;;;;;1.00;0.60;;;;;;;2.69;74.53;100804.06;5102056;28;20035;-73
2020/12/25 09:18:59;;;;;;;1.45;0.80;;;;;;;2.23;73.76;100785.56;5103345;28;20028;-75
2020/12/25 09:21:28;;;;;;;2.83;0.82;;;;;;;1.69;74.08;100792.34;5101876;28;20047;-74
2020/12/25 09:23:56;;;;;;;0.90;0.80;;;;;;;1.07;74.38;100783.38;5103407;28;20016;-73
2020/12/25 09:26:23;;;;;;;2.83;0.98;;;;;;;0.58;74.94;100786.69;5103170;28;20020;-74
2020/12/25 09:28:49;;;;;;;0.95;0.70;;;;;;;0.32;75.66;100795.88;5103133;28;20028;-72
2020/12/25 09:31:15;;;;;;;1.05;0.68;;;;;;;0.09;76.50;100796.69;5104586;28;20361;-73
2020/12/25 09:33:41;;;;;;;2.10;0.95;;;;;;;-0.20;77.01;100787.81;5105888;28;20054;-75
2020/12/25 09:36:08;;;;;;;0.70;0.50;;;;;;;-0.32;77.58;100801.78;5106111;28;20024;-74
2020/12/25 09:38:34;;;;;;;1.95;0.73;;;;;;;-0.38;77.62;100801.53;5105759;28;20016;-73
2020/12/25 09:41:00;;;;;;;1.05;0.80;;;;;;;-0.58;77.50;100787.94;5106097;28;20053;-73
2020/12/25 09:43:28;;;;;;;0.70;0.55;;;;;;;-0.53;77.95;100805.16;5107281;28;20099;-73
2020/12/25 09:45:53;;;;;;;1.30;0.77;;;;;;;-0.57;77.80;100804.97;5107116;28;20016;-73
2020/12/25 09:48:19;;;;;;;2.38;1.00;;;;;;;-0.61;78.19;100821.84;5105606;28;20100;-73
2020/12/25 09:50:44;;;;;;;2.55;1.15;;;;;;;-0.82;78.67;100791.16;5107234;28;20086;-73
2020/12/25 09:53:10;;;;;;;1.45;0.80;;;;;;;-0.71;79.13;100814.56;5106792;28;20450;-72
2020/12/25 09:55:37;;;;;;;1.83;0.85;;;;;;;-0.67;79.40;100826.66;5105545;28;20036;-72
2020/12/25 09:58:04;;;;;;;5.28;1.02;;;;;;;-0.74;79.54;100822.97;5106802;28;20285;-72
2020/12/25 10:00:29;;;;;;;1.10;0.70;;;;;;;-0.76;79.65;100828.00;5105446;28;20023;-72
2020/12/25 10:02:57;;;;;;;1.45;0.90;;;;;;;-0.73;79.74;100841.66;5105232;28;20091;-73
2020/12/25 10:05:22;;;;;;;1.55;0.80;;;;;;;-0.87;79.93;100829.19;5106875;28;20019;-72
2020/12/25 10:07:51;;;;;;;2.08;0.85;;;;;;;-0.90;79.96;100840.13;5106536;28;20020;-73
2020/12/25 10:10:17;;;;;;;1.85;0.95;;;;;;;-0.89;80.01;100858.81;5106897;28;20161;-73
2020/12/25 10:12:42;;;;;;;1.65;0.70;;;;;;;-1.08;80.23;100835.03;5106506;28;20414;-73
2020/12/25 10:15:07;;;;;;;1.70;1.00;;;;;;;-1.01;80.46;100854.06;5106578;28;20032;-73
2020/12/25 10:17:33;;;;;;;1.50;0.95;;;;;;;-0.65;81.81;100846.31;5106093;28;20039;-74
2020/12/25 10:19:58;;;;;;;1.98;0.88;;;;;;;0.41;81.76;100844.78;5106431;28;20044;-72
2020/12/25 10:22:24;;;;;;;2.22;1.02;;;;;;;1.47;79.32;100841.06;5106379;28;20087;-72
2020/12/25 10:24:49;;;;;;;1.40;0.90;;;;;;;2.23;77.71;100834.25;5106542;28;20047;-73
2020/12/25 10:27:15;;;;;;;2.05;0.90;;;;;;;2.79;76.87;100856.50;5104841;28;20042;-72
2020/12/25 10:29:40;;;;;;;1.00;0.70;;;;;;;3.10;75.92;100838.59;5106316;28;20107;-74
2020/12/25 10:32:06;;;;;;;1.15;0.63;;;;;;;3.22;74.29;100848.34;5104984;28;20020;-73
2020/12/25 10:34:31;;;;;;;1.48;0.80;;;;;;;3.16;75.46;100851.63;5105929;28;20016;-72
2020/12/25 10:36:59;;;;;;;1.23;0.80;;;;;;;2.95;72.80;100842.47;5104871;28;20020;-70
2020/12/25 10:39:25;;;;;;;1.02;0.70;;;;;;;2.56;72.84;100825.88;5105864;28;20031;-70
2020/12/25 10:41:50;;;;;;;2.20;0.65;;;;;;;2.34;74.33;100842.28;5105198;28;20408;-73
2020/12/25 10:44:15;;;;;;;1.75;0.85;;;;;;;2.05;74.36;100829.38;5104900;28;20024;-70
2020/12/25 10:46:41;;;;;;;2.58;0.85;;;;;;;1.79;74.69;100837.06;5105886;28;20047;-71
2020/12/25 10:49:06;;;;;;;1.23;0.90;;;;;;;1.59;74.64;100815.06;5105687;28;20020;-73
2020/12/25 10:51:31;;;;;;;1.15;0.70;;;;;;;1.51;75.10;100825.81;5106021;28;20240;-72
2020/12/25 10:53:57;;;;;;;3.13;0.73;;;;;;;1.40;75.57;100830.56;5105859;28;20024;-73
2020/12/25 10:56:24;;;;;;;1.65;0.90;;;;;;;1.31;75.86;100833.66;5105920;28;20028;-73
2020/12/25 10:58:49;;;;;;;1.70;0.90;;;;;;;1.18;75.61;100835.75;5105763;28;20035;-74
2020/12/25 11:01:28;;;;;;;2.00;0.90;;;;;;;1.05;75.34;100821.66;5105717;28;20020;-72
2020/12/25 11:03:55;;;;;;;2.65;1.00;;;;;;;1.01;75.89;100803.59;5105430;28;20020;-73
2020/12/25 11:06:35;;;;;;;1.35;1.05;;;;;;;0.98;75.72;100804.34;5105618;28;20048;-74
2020/12/25 11:09:01;;;;;;;1.77;1.00;;;;;;;0.94;75.62;100800.78;5105391;28;20028;-72
2020/12/25 11:11:30;;;;;;;1.98;1.10;;;;;;;0.98;75.43;100807.78;5105583;28;20077;-71
2020/12/25 11:13:57;;;;;;;2.38;0.88;;;;;;;1.31;74.11;100793.59;5105375;28;20031;-71
2020/12/25 11:16:26;;;;;;;1.40;0.95;;;;;;;1.61;72.68;100781.84;5105597;28;20040;-73
2020/12/25 11:18:53;;;;;;;1.25;1.05;;;;;;;1.91;72.16;100799.06;5105345;28;20024;-73
2020/12/25 11:21:20;;;;;;;2.30;0.80;;;;;;;2.02;70.97;100795.97;5105270;28;20044;-73
2020/12/25 11:23:45;;;;;;;3.42;1.30;;;;;;;2.02;70.83;100803.66;5105926;28;20080;-72
2020/12/25 11:26:22;;;;;;;4.50;1.23;;;;;;;2.26;71.05;100812.97;5105320;28;20031;-71